Time;durP1;ratioP1;P1;durP2;ratioP2;P2;SDS_P1;SDS_P2;PMS_P1;PMS_P2;Temp;Humidity;BMP_temperature;BMP_pressure;BME280_temperature;BME280_humidity;BME280_pressure;Samples;Min_cycle;Max_cycle;Signal;HPM_P1;HPM_P2
2022/05/18 00:01:01;;;;;;;7.90;6.85;;;20.60;99.90;;;;;;5057933;28;20009;-68
2022/05/18 00:03:33;;;;;;;9.73;6.95;;;20.60;99.90;;;;;;5059338;28;20075;-68
2022/05/18 00:06:00;;;;;;;6.90;6.10;;;20.50;99.90;;;;;;5059277;28;20025;-68
2022/05/18 00:08:27;;;;;;;9.32;6.65;;;20.50;99.90;;;;;;5060669;28;20283;-68
2022/05/18 00:10:52;;;;;;;10.80;6.43;;;20.50;99.90;;;;;;5061052;28;20040;-68
2022/05/18 00:13:19;;;;;;;11.93;6.63;;;20.40;99.90;;;;;;5059422;28;20025;-69
2022/05/18 00:15:46;;;;;;;9.55;5.97;;;20.40;99.90;;;;;;5061151;28;20073;-68
2022/05/18 00:18:12;;;;;;;9.23;6.72;;;20.40;99.90;;;;;;5063094;28;20086;-69
2022/05/18 00:20:37;;;;;;;7.40;6.70;;;20.40;99.90;;;;;;5058006;28;20481;-68
2022/05/18 00:23:04;;;;;;;8.32;6.63;;;20.30;99.90;;;;;;5058362;28;20077;-68
2022/05/18 00:25:33;;;;;;;7.68;6.57;;;20.30;99.90;;;;;;5060605;28;20020;-68
2022/05/18 00:28:00;;;;;;;7.53;6.82;;;20.30;99.90;;;;;;5058411;28;20020;-69
2022/05/18 00:30:28;;;;;;;13.80;7.22;;;20.20;99.90;;;;;;5066054;28;20028;-68
2022/05/18 00:32:55;;;;;;;10.48;6.93;;;20.20;99.90;;;;;;5062117;28;20079;-68
2022/05/18 00:35:22;;;;;;;9.52;7.60;;;20.10;99.90;;;;;;5062821;28;20023;-68
2022/05/18 00:37:48;;;;;;;7.47;6.55;;;20.10;99.90;;;;;;5062654;28;20040;-68
2022/05/18 00:40:18;;;;;;;10.52;6.75;;;20.10;99.90;;;;;;5062425;28;20021;-68
2022/05/18 00:42:44;;;;;;;8.32;6.63;;;20.10;99.90;;;;;;5060912;28;20151;-68
2022/05/18 00:45:11;;;;;;;6.78;6.05;;;20.10;99.90;;;;;;5062747;28;20510;-68
2022/05/18 00:47:37;;;;;;;11.68;6.95;;;20.10;99.90;;;;;;5075125;28;20441;-68
2022/05/18 00:50:17;;;;;;;7.13;6.43;;;20.00;99.90;;;;;;5073619;28;20086;-68
2022/05/18 00:53:18;;;;;;;8.32;7.63;;;20.00;99.90;;;;;;5073899;28;20020;-68
2022/05/18 00:55:47;;;;;;;11.50;7.78;;;19.90;99.90;;;;;;5072453;28;20036;-68
2022/05/18 00:58:22;;;;;;;7.35;6.65;;;19.90;99.90;;;;;;5070851;28;20033;-68
2022/05/18 01:00:51;;;;;;;8.20;7.30;;;19.80;99.90;;;;;;5074312;28;20059;-68
2022/05/18 01:03:19;;;;;;;9.27;7.15;;;19.80;99.90;;;;;;5074461;28;20423;-68
2022/05/18 01:05:51;;;;;;;10.40;8.50;;;19.70;99.90;;;;;;5071398;28;20036;-68
2022/05/18 01:08:29;;;;;;;8.10;7.22;;;19.70;99.90;;;;;;5074027;28;20028;-68
2022/05/18 01:10:55;;;;;;;11.07;8.00;;;19.70;99.90;;;;;;5059951;28;20389;-68
2022/05/18 01:13:20;;;;;;;12.32;7.60;;;19.70;99.90;;;;;;5073995;28;20029;-68
2022/05/18 01:15:46;;;;;;;10.82;7.93;;;19.70;99.90;;;;;;5066602;28;20031;-68
2022/05/18 01:18:13;;;;;;;10.10;8.27;;;19.60;99.90;;;;;;5071517;28;20036;-68
2022/05/18 01:20:41;;;;;;;11.73;9.15;;;19.60;99.90;;;;;;5074816;28;20461;-68
2022/05/18 01:23:44;;;;;;;9.90;7.38;;;19.60;99.90;;;;;;5069455;28;20095;-68
2022/05/18 01:26:18;;;;;;;12.70;10.63;;;19.50;99.90;;;;;;5072300;28;20037;-68
2022/05/18 01:29:05;;;;;;;13.18;10.85;;;19.50;99.90;;;;;;5074399;28;20033;-68
2022/05/18 01:31:51;;;;;;;9.45;8.40;;;19.50;99.90;;;;;;5073776;28;20028;-68
2022/05/18 01:34:21;;;;;;;13.90;9.77;;;19.40;99.90;;;;;;5070498;28;20025;-68
2022/05/18 01:36:48;;;;;;;10.98;9.68;;;19.40;99.90;;;;;;5072287;28;20028;-68
2022/05/18 01:39:31;;;;;;;12.73;9.82;;;19.30;99.90;;;;;;5065020;28;20025;-68
2022/05/18 01:42:06;;;;;;;14.10;9.90;;;19.30;99.90;;;;;;5071957;28;20024;-68
2022/05/18 01:44:38;;;;;;;11.60;9.07;;;19.20;99.90;;;;;;5072087;28;20504;-68
2022/05/18 01:47:04;;;;;;;11.85;9.50;;;19.30;99.90;;;;;;5071768;28;20040;-68
2022/05/18 01:49:32;;;;;;;11.25;9.98;;;19.10;99.90;;;;;;5073363;28;20020;-68
2022/05/18 01:51:58;;;;;;;12.05;9.70;;;19.10;99.90;;;;;;5071527;28;20103;-68
2022/05/18 01:54:24;;;;;;;10.40;9.32;;;19.10;99.90;;;;;;5068814;28;20115;-68
2022/05/18 01:56:50;;;;;;;10.20;9.10;;;19.10;99.90;;;;;;5072944;28;20036;-68
2022/05/18 01:59:16;;;;;;;12.63;9.77;;;19.00;99.90;;;;;;5071271;28;20024;-68
2022/05/18 02:01:41;;;;;;;11.40;9.60;;;19.00;99.90;;;;;;5073294;28;20036;-68
2022/05/18 02:04:07;;;;;;;11.20;10.10;;;18.90;99.90;;;;;;5068770;28;20405;-68
2022/05/18 02:06:34;;;;;;;12.73;10.65;;;18.90;99.90;;;;;;5076754;28;20480;-68
2022/05/18 02:09:01;;;;;;;15.75;10.60;;;18.90;99.90;;;;;;5076903;28;20020;-68
2022/05/18 02:11:26;;;;;;;12.30;10.98;;;18.90;99.90;;;;;;5072584;28;20125;-68
2022/05/18 02:13:52;;;;;;;11.88;10.20;;;18.90;99.90;;;;;;5076707;28;20067;-68
2022/05/18 02:16:20;;;;;;;12.25;10.88;;;18.90;99.90;;;;;;5071482;28;20036;-68
2022/05/18 02:18:45;;;;;;;13.75;10.63;;;18.80;99.90;;;;;;5076190;28;20439;-68
2022/05/18 02:21:12;;;;;;;12.13;10.88;;;18.80;99.90;;;;;;5077448;28;20073;-68
2022/05/18 02:23:39;;;;;;;14.60;11.23;;;18.80;99.90;;;;;;5077496;28;20125;-68
2022/05/18 02:26:16;;;;;;;16.17;11.23;;;18.80;99.90;;;;;;5072167;28;20028;-68
2022/05/18 02:28:43;;;;;;;13.80;10.55;;;18.80;99.90;;;;;;5077616;28;20047;-68
2022/05/18 02:31:10;;;;;;;11.23;10.00;;;18.70;99.90;;;;;;5075686;28;20035;-68
2022/05/18 02:33:36;;;;;;;14.77;11.23;;;18.70;99.90;;;;;;5077491;28;20033;-68
2022/05/18 02:36:03;;;;;;;15.18;11.50;;;18.70;99.90;;;;;;5075994;28;20078;-68
2022/05/18 02:38:28;;;;;;;12.40;10.73;;;18.70;99.90;;;;;;5075177;28;20381;-68
2022/05/18 02:40:58;;;;;;;12.60;9.07;;;18.70;99.90;;;;;;5068820;28;20025;-68
2022/05/18 02:43:24;;;;;;;12.52;10.98;;;18.70;99.90;;;;;;5074461;28;20082;-68
2022/05/18 02:45:49;;;;;;;13.18;11.27;;;18.70;99.90;;;;;;5077390;28;20024;-68
2022/05/18 02:48:16;;;;;;;15.10;10.13;;;18.60;99.90;;;;;;5077123;28;20062;-68
2022/05/18 02:50:44;;;;;;;11.77;9.82;;;18.60;99.90;;;;;;5077323;28;20032;-68
2022/05/18 02:53:10;;;;;;;13.00;10.52;;;18.60;99.90;;;;;;5075714;28;20031;-68
2022/05/18 02:58:20;;;;;;;12.63;10.30;;;18.50;99.90;;;;;;5072051;28;20046;-68
2022/05/18 03:00:46;;;;;;;10.15;9.15;;;18.40;99.90;;;;;;5070787;28;20036;-68
2022/05/18 03:03:12;;;;;;;13.80;10.07;;;18.30;99.90;;;;;;5075316;28;20101;-68
2022/05/18 03:05:38;;;;;;;10.50;9.45;;;18.40;99.90;;;;;;5074795;28;20593;-68
2022/05/18 03:08:05;;;;;;;11.93;10.27;;;18.40;99.90;;;;;;5076090;28;20049;-68
2022/05/18 03:10:31;;;;;;;14.15;10.77;;;18.40;99.90;;;;;;5076543;28;20062;-68
2022/05/18 03:12:57;;;;;;;14.93;11.80;;;18.40;99.90;;;;;;5074261;28;20070;-68
2022/05/18 03:15:23;;;;;;;18.25;12.23;;;18.50;99.90;;;;;;5074603;28;20028;-68
2022/05/18 03:17:48;;;;;;;13.23;11.52;;;18.50;99.90;;;;;;5072291;28;20037;-68
2022/05/18 03:23:33;;;;;;;16.75;11.60;;;18.50;99.90;;;;;;5075628;28;20021;-68
2022/05/18 03:25:44;;;;;;;14.70;10.65;;;18.50;99.90;;;;;;5077283;28;20074;-68
2022/05/18 03:28:09;;;;;;;13.60;10.90;;;18.50;99.90;;;;;;5073865;28;20032;-68
2022/05/18 03:30:35;;;;;;;14.45;11.38;;;18.50;99.90;;;;;;5076450;28;20028;-68
2022/05/18 03:33:01;;;;;;;13.43;11.98;;;18.50;99.90;;;;;;5075278;28;20037;-68
2022/05/18 03:35:26;;;;;;;13.40;12.00;;;18.50;99.90;;;;;;5074946;28;20021;-68
2022/05/18 03:37:52;;;;;;;10.93;9.68;;;18.50;99.90;;;;;;5073138;28;20036;-68
2022/05/18 03:40:17;;;;;;;13.88;9.85;;;18.50;99.90;;;;;;5074854;28;20033;-68
2022/05/18 03:42:44;;;;;;;13.38;10.15;;;18.50;99.90;;;;;;5070750;28;20025;-68
2022/05/18 03:45:10;;;;;;;15.68;10.07;;;18.50;99.90;;;;;;5074448;28;20059;-68
2022/05/18 03:47:36;;;;;;;15.13;11.52;;;18.40;99.90;;;;;;5075750;28;20032;-68
2022/05/18 03:50:02;;;;;;;14.27;9.38;;;18.40;99.90;;;;;;5075275;28;20033;-68
2022/05/18 03:52:27;;;;;;;13.38;10.85;;;18.20;99.90;;;;;;5074384;28;20043;-68
2022/05/18 03:54:53;;;;;;;10.25;9.25;;;18.20;99.90;;;;;;5075074;28;20054;-68
2022/05/18 03:57:19;;;;;;;14.07;11.30;;;18.20;99.90;;;;;;5072837;28;20025;-68
2022/05/18 03:59:44;;;;;;;12.85;10.10;;;18.10;99.90;;;;;;5076145;28;20028;-68
2022/05/18 04:02:10;;;;;;;11.85;10.18;;;18.10;99.90;;;;;;5074375;28;20025;-68
2022/05/18 04:04:35;;;;;;;12.98;9.57;;;18.10;99.90;;;;;;5071909;28;20421;-68
2022/05/18 04:07:02;;;;;;;16.42;10.52;;;18.10;99.90;;;;;;5075222;28;20024;-68
2022/05/18 04:09:27;;;;;;;13.02;9.98;;;18.10;99.90;;;;;;5074171;28;20028;-68
2022/05/18 04:11:53;;;;;;;16.40;9.07;;;18.00;99.90;;;;;;5070923;28;20036;-68
2022/05/18 04:14:18;;;;;;;12.60;9.02;;;18.00;99.90;;;;;;5074589;28;20032;-68
2022/05/18 04:16:48;;;;;;;11.90;9.98;;;18.00;99.90;;;;;;5075405;28;20112;-68
2022/05/18 04:19:15;;;;;;;15.13;10.80;;;18.00;99.90;;;;;;5071433;28;20052;-68
2022/05/18 04:21:41;;;;;;;13.98;10.23;;;17.90;99.90;;;;;;5073688;28;20419;-68
2022/05/18 04:24:08;;;;;;;12.35;10.27;;;17.90;99.90;;;;;;5067941;28;20035;-68
2022/05/18 04:26:34;;;;;;;15.55;9.57;;;17.90;99.90;;;;;;5076331;28;20036;-68
2022/05/18 04:29:00;;;;;;;10.38;8.70;;;17.90;99.90;;;;;;5073599;28;20501;-68
2022/05/18 04:31:27;;;;;;;11.55;9.98;;;17.90;99.90;;;;;;5072546;28;20143;-68
2022/05/18 04:33:53;;;;;;;13.90;9.30;;;17.90;99.90;;;;;;5069211;28;20931;-68
2022/05/18 04:36:18;;;;;;;13.18;9.15;;;18.00;99.90;;;;;;5069933;28;20464;-68
2022/05/18 04:38:45;;;;;;;12.32;9.48;;;18.00;99.90;;;;;;5074426;28;20052;-68
2022/05/18 04:41:12;;;;;;;12.10;9.63;;;18.00;99.90;;;;;;5070419;28;20037;-68
2022/05/18 04:43:41;;;;;;;11.38;8.98;;;18.00;99.90;;;;;;5076288;28;20041;-68
2022/05/18 04:46:07;;;;;;;10.63;9.13;;;17.90;99.90;;;;;;5075008;28;20028;-68
2022/05/18 04:48:33;;;;;;;9.88;8.38;;;18.00;99.90;;;;;;5075584;28;20036;-68
2022/05/18 04:51:00;;;;;;;9.98;8.23;;;18.00;99.90;;;;;;5068398;28;20526;-68
2022/05/18 04:53:25;;;;;;;12.60;8.38;;;18.10;99.90;;;;;;5072307;28;20388;-68
2022/05/18 04:55:52;;;;;;;11.27;8.63;;;18.20;99.90;;;;;;5074465;28;20016;-68
2022/05/18 04:58:17;;;;;;;9.77;8.23;;;18.20;99.90;;;;;;5070865;28;20504;-68
2022/05/18 05:00:44;;;;;;;9.32;7.70;;;18.20;99.90;;;;;;5073875;28;20025;-68
2022/05/18 05:03:10;;;;;;;10.32;8.70;;;18.20;99.90;;;;;;5074483;28;20024;-68
2022/05/18 05:05:36;;;;;;;9.57;7.53;;;18.20;99.90;;;;;;5074376;28;20028;-68
2022/05/18 05:08:02;;;;;;;12.20;7.38;;;18.30;99.90;;;;;;5074233;28;20079;-68
2022/05/18 05:10:28;;;;;;;9.63;7.78;;;18.30;99.90;;;;;;5071686;28;20024;-68
2022/05/18 05:12:53;;;;;;;9.50;7.55;;;18.40;99.90;;;;;;5074002;28;20043;-68
2022/05/18 05:15:19;;;;;;;13.05;7.43;;;18.40;99.90;;;;;;5073586;28;20119;-68
2022/05/18 05:17:46;;;;;;;11.07;7.65;;;18.50;99.90;;;;;;5066024;28;20037;-68
2022/05/18 05:20:12;;;;;;;10.85;7.63;;;18.70;99.90;;;;;;5066688;28;20017;-68
2022/05/18 05:22:38;;;;;;;11.18;7.40;;;18.70;99.90;;;;;;5068222;28;20492;-68
2022/05/18 05:25:04;;;;;;;9.63;7.03;;;18.80;99.90;;;;;;5069300;28;20050;-68
2022/05/18 05:27:30;;;;;;;7.88;6.85;;;18.80;99.90;;;;;;5071624;28;20047;-68
2022/05/18 05:29:56;;;;;;;8.10;7.30;;;18.80;99.90;;;;;;5068898;28;20024;-68
2022/05/18 05:32:22;;;;;;;10.05;7.18;;;18.90;99.90;;;;;;5071106;28;20036;-68
2022/05/18 05:34:48;;;;;;;8.85;6.70;;;19.00;99.90;;;;;;5070734;28;20028;-68
2022/05/18 05:37:13;;;;;;;9.85;7.30;;;19.10;99.90;;;;;;5067840;28;20120;-68
2022/05/18 05:39:39;;;;;;;11.85;8.15;;;19.10;99.90;;;;;;5072469;28;20090;-68
2022/05/18 05:42:05;;;;;;;9.30;6.30;;;19.10;99.90;;;;;;5067690;28;20440;-68
2022/05/18 05:44:30;;;;;;;8.52;7.50;;;19.20;99.90;;;;;;5077507;28;20028;-68
2022/05/18 05:46:56;;;;;;;10.38;7.05;;;19.20;99.90;;;;;;5076775;28;20361;-68
2022/05/18 05:49:22;;;;;;;10.57;6.55;;;19.20;99.90;;;;;;5077690;28;20021;-68
2022/05/18 05:51:48;;;;;;;8.82;6.30;;;19.30;99.90;;;;;;5076837;28;20032;-68
2022/05/18 05:54:13;;;;;;;9.98;6.95;;;19.30;99.90;;;;;;5077121;28;20543;-68
2022/05/18 05:56:39;;;;;;;12.48;7.35;;;19.30;99.90;;;;;;5071496;28;20481;-68
2022/05/18 05:59:05;;;;;;;9.63;6.22;;;19.40;99.90;;;;;;5076895;28;20033;-68
2022/05/18 06:01:30;;;;;;;10.20;6.40;;;19.50;99.90;;;;;;5077755;28;20032;-68
2022/05/18 06:03:56;;;;;;;9.88;5.93;;;19.60;99.90;;;;;;5075910;28;20032;-68
2022/05/18 06:06:22;;;;;;;12.23;5.90;;;19.80;99.90;;;;;;5071583;28;20046;-69
2022/05/18 06:08:47;;;;;;;8.52;5.57;;;20.00;99.90;;;;;;5071654;28;20066;-68
2022/05/18 06:11:13;;;;;;;5.78;4.80;;;20.20;99.90;;;;;;5071684;28;20361;-68
2022/05/18 06:13:39;;;;;;;7.40;5.30;;;20.40;99.90;;;;;;5067715;28;20476;-68
2022/05/18 06:16:07;;;;;;;7.65;5.90;;;20.40;99.90;;;;;;5076256;28;20028;-68
2022/05/18 06:18:33;;;;;;;5.15;4.65;;;20.50;99.90;;;;;;5076317;28;20036;-68
2022/05/18 06:20:59;;;;;;;9.40;4.40;;;20.70;99.90;;;;;;5075707;28;20036;-69
2022/05/18 06:23:25;;;;;;;5.22;4.65;;;20.80;99.90;;;;;;5070365;28;20401;-69
2022/05/18 06:25:51;;;;;;;7.60;4.68;;;20.90;99.90;;;;;;5072268;28;20500;-68
2022/05/18 06:28:17;;;;;;;7.45;4.03;;;21.00;99.90;;;;;;5076522;28;20460;-68
2022/05/18 06:30:44;;;;;;;4.60;4.20;;;21.10;99.90;;;;;;5075269;28;20072;-68
2022/05/18 06:33:10;;;;;;;7.88;4.45;;;21.20;99.90;;;;;;5076186;28;20387;-68
2022/05/18 06:35:36;;;;;;;6.10;4.13;;;21.30;99.90;;;;;;5076838;28;20017;-68
2022/05/18 06:38:10;;;;;;;5.80;4.32;;;21.40;99.90;;;;;;5075474;28;20040;-68
2022/05/18 06:43:22;;;;;;;4.70;4.30;;;21.50;99.90;;;;;;5071515;28;20047;-68
2022/05/18 06:45:48;;;;;;;5.68;4.28;;;21.60;99.90;;;;;;5075574;28;20028;-68
2022/05/18 06:48:14;;;;;;;5.32;3.72;;;21.70;99.90;;;;;;5073769;28;20024;-70
2022/05/18 06:50:39;;;;;;;4.90;4.07;;;21.70;99.90;;;;;;5072817;28;20519;-68
2022/05/18 06:53:05;;;;;;;6.43;4.20;;;21.80;99.90;;;;;;5071342;28;20477;-68
2022/05/18 06:55:31;;;;;;;10.30;4.30;;;21.90;99.90;;;;;;5068416;28;20075;-68
2022/05/18 06:57:56;;;;;;;4.32;3.92;;;21.90;99.90;;;;;;5074595;28;20093;-68
2022/05/18 07:00:22;;;;;;;6.22;3.38;;;22.00;99.90;;;;;;5065093;28;20108;-69
2022/05/18 07:02:50;;;;;;;6.25;4.32;;;22.10;99.90;;;;;;5064328;28;20037;-68
2022/05/18 07:05:16;;;;;;;7.20;4.82;;;22.20;99.90;;;;;;5068936;28;20078;-69
2022/05/18 07:07:41;;;;;;;4.75;3.90;;;22.30;99.90;;;;;;5072327;28;20028;-69
2022/05/18 07:10:07;;;;;;;9.88;4.65;;;22.30;99.90;;;;;;5076123;28;20101;-69
2022/05/18 07:12:34;;;;;;;7.22;4.07;;;22.30;99.90;;;;;;5071077;28;20046;-69
2022/05/18 07:14:59;;;;;;;8.85;3.50;;;22.30;99.90;;;;;;5077021;28;20071;-68
2022/05/18 07:17:25;;;;;;;10.32;4.22;;;22.40;99.90;;;;;;5069567;28;20489;-68
2022/05/18 07:19:51;;;;;;;5.22;4.18;;;22.40;99.90;;;;;;5075863;28;20117;-69
2022/05/18 07:22:17;;;;;;;7.60;4.28;;;22.40;99.90;;;;;;5072858;28;20033;-69
2022/05/18 07:24:43;;;;;;;5.70;4.20;;;22.50;99.90;;;;;;5072375;28;20059;-69
2022/05/18 07:27:09;;;;;;;10.23;4.00;;;22.60;99.90;;;;;;5075431;28;20029;-69
2022/05/18 07:29:35;;;;;;;4.72;3.15;;;22.60;99.90;;;;;;5070009;28;20074;-69
2022/05/18 07:32:12;;;;;;;7.07;4.40;;;22.60;99.90;;;;;;5069153;28;20036;-69
2022/05/18 07:34:41;;;;;;;9.23;4.40;;;22.60;99.90;;;;;;5074610;28;20070;-69
2022/05/18 07:37:07;;;;;;;6.72;4.15;;;22.70;99.90;;;;;;5069186;28;20044;-68
2022/05/18 07:39:35;;;;;;;9.60;4.45;;;22.70;99.90;;;;;;5065836;28;20474;-68
2022/05/18 07:42:00;;;;;;;8.98;3.80;;;22.70;99.90;;;;;;5070234;28;20032;-69
2022/05/18 07:44:27;;;;;;;9.32;3.70;;;22.90;99.90;;;;;;5073330;28;20028;-69
2022/05/18 07:46:54;;;;;;;6.15;4.68;;;23.30;99.90;;;;;;5072226;28;20092;-69
2022/05/18 07:49:19;;;;;;;10.18;4.20;;;23.40;99.90;;;;;;5072520;28;20066;-69
2022/05/18 07:51:45;;;;;;;9.52;4.68;;;23.30;99.90;;;;;;5075163;28;20436;-68
2022/05/18 07:54:12;;;;;;;11.20;5.07;;;23.30;99.90;;;;;;5069361;28;20041;-69
2022/05/18 07:56:38;;;;;;;7.13;5.18;;;23.40;99.90;;;;;;5073027;28;20020;-69
2022/05/18 07:59:06;;;;;;;10.73;4.97;;;23.50;99.90;;;;;;5067307;28;20439;-69
2022/05/18 08:01:32;;;;;;;10.13;4.72;;;23.70;99.90;;;;;;5064440;28;20525;-69
2022/05/18 08:03:58;;;;;;;10.55;6.53;;;23.90;99.90;;;;;;5046606;28;20028;-69
2022/05/18 08:06:23;;;;;;;10.60;6.80;;;24.00;99.90;;;;;;5061651;28;20024;-69
2022/05/18 08:08:49;;;;;;;12.02;6.80;;;24.00;99.90;;;;;;5072753;28;20028;-69
2022/05/18 08:16:47;;;;;;;6.30;5.15;;;24.40;99.90;;;;;;5071176;28;20115;-70
2022/05/18 08:19:14;;;;;;;11.00;5.05;;;24.50;99.90;;;;;;5065412;28;20036;-70
2022/05/18 08:21:40;;;;;;;12.40;5.20;;;24.40;99.90;;;;;;5064951;28;20024;-70
2022/05/18 08:24:07;;;;;;;8.20;4.95;;;24.50;99.90;;;;;;5066761;28;20776;-70
2022/05/18 08:26:33;;;;;;;7.47;4.47;;;24.70;99.90;;;;;;5067430;28;20035;-69
2022/05/18 08:29:00;;;;;;;10.57;5.20;;;24.90;99.90;;;;;;5057978;28;20488;-70
2022/05/18 08:31:26;;;;;;;6.70;4.13;;;25.10;99.90;;;;;;5066913;28;20032;-70
2022/05/18 08:33:55;;;;;;;7.70;4.07;;;25.20;99.90;;;;;;5068024;28;20021;-70
2022/05/18 08:36:25;;;;;;;5.47;3.60;;;25.10;99.90;;;;;;5065949;28;20124;-69
2022/05/18 08:38:51;;;;;;;7.03;4.10;;;25.20;99.90;;;;;;5072171;28;20051;-69
2022/05/18 08:41:25;;;;;;;7.45;3.72;;;25.30;99.90;;;;;;5069249;28;20028;-70
2022/05/18 08:44:00;;;;;;;5.85;3.58;;;25.40;99.90;;;;;;5065797;28;20411;-69
2022/05/18 08:46:44;;;;;;;7.30;4.13;;;25.60;99.90;;;;;;5064852;28;20017;-70
2022/05/18 08:49:49;;;;;;;6.72;3.15;;;25.80;99.90;;;;;;5067248;28;20024;-70
2022/05/18 08:52:29;;;;;;;4.55;3.13;;;25.70;99.90;;;;;;5069279;28;20141;-70
2022/05/18 08:55:35;;;;;;;5.22;3.03;;;25.60;99.90;;;;;;5068608;28;20039;-70
2022/05/18 08:58:04;;;;;;;5.03;3.08;;;25.60;99.90;;;;;;5064558;28;20033;-69
2022/05/18 09:00:43;;;;;;;5.18;2.83;;;25.60;99.70;;;;;;5069082;28;20024;-70
2022/05/18 09:03:17;;;;;;;4.82;2.72;;;25.60;99.80;;;;;;5059346;28;20028;-69
2022/05/18 09:06:07;;;;;;;5.78;3.20;;;25.60;99.90;;;;;;5071526;28;20113;-69
2022/05/18 09:08:45;;;;;;;6.15;2.85;;;25.60;99.90;;;;;;5063474;28;20021;-69
2022/05/18 09:11:21;;;;;;;5.80;3.10;;;25.80;99.90;;;;;;5061756;28;20032;-70
2022/05/18 09:13:47;;;;;;;7.15;3.20;;;25.70;99.90;;;;;;5062679;28;20472;-70
2022/05/18 09:16:34;;;;;;;10.13;2.70;;;25.80;99.80;;;;;;5072555;28;20083;-70
2022/05/18 09:19:17;;;;;;;3.53;2.60;;;26.10;99.60;;;;;;5075706;28;20090;-70
2022/05/18 09:22:09;;;;;;;5.95;2.80;;;26.20;99.00;;;;;;5073097;28;20052;-70
2022/05/18 09:24:43;;;;;;;3.92;2.45;;;26.00;99.10;;;;;;5076994;28;20028;-70
2022/05/18 09:27:09;;;;;;;5.85;2.70;;;26.00;98.60;;;;;;5065638;28;20033;-69
2022/05/18 09:29:40;;;;;;;5.80;2.78;;;26.20;98.20;;;;;;5072606;28;20096;-70
2022/05/18 09:32:30;;;;;;;5.03;2.47;;;26.40;98.20;;;;;;5064521;28;20085;-70
2022/05/18 09:35:25;;;;;;;2.95;2.50;;;26.50;98.10;;;;;;5070976;28;20078;-70
2022/05/18 09:38:00;;;;;;;3.20;2.95;;;26.70;98.00;;;;;;5063071;28;20125;-70
2022/05/18 09:40:43;;;;;;;6.72;3.08;;;26.70;97.70;;;;;;5072695;28;20116;-70
2022/05/18 09:43:28;;;;;;;5.45;3.40;;;26.70;96.40;;;;;;5068684;28;20040;-70
2022/05/18 09:45:56;;;;;;;4.45;3.17;;;26.60;97.10;;;;;;5066318;28;20484;-70
2022/05/18 09:48:26;;;;;;;5.10;3.03;;;26.90;97.30;;;;;;5071796;28;20061;-70
2022/05/18 09:50:52;;;;;;;7.72;3.42;;;27.20;96.90;;;;;;5074376;28;20025;-70
2022/05/18 09:53:19;;;;;;;5.32;3.17;;;27.30;97.00;;;;;;5069328;28;20034;-70
2022/05/18 09:55:47;;;;;;;8.48;3.70;;;27.20;97.70;;;;;;5070830;28;20020;-70
2022/05/18 09:58:30;;;;;;;4.65;3.17;;;27.40;96.20;;;;;;5073501;28;20045;-70
2022/05/18 10:09:41;;;;;;;8.57;4.60;;;27.30;97.20;;;;;;5064044;28;20707;-70
2022/05/18 10:12:19;;;;;;;7.00;3.20;;;27.20;96.50;;;;;;5069267;28;20031;-70
2022/05/18 10:14:48;;;;;;;5.72;3.80;;;27.50;96.40;;;;;;5068665;28;20086;-70
2022/05/18 10:17:15;;;;;;;8.02;4.40;;;27.70;96.20;;;;;;5067524;28;20024;-70
2022/05/18 10:19:50;;;;;;;5.70;3.88;;;27.80;95.60;;;;;;5073231;28;20043;-70
2022/05/18 10:22:24;;;;;;;5.40;3.13;;;27.90;95.40;;;;;;5076817;28;20025;-70
2022/05/18 10:24:55;;;;;;;4.85;3.38;;;27.90;95.30;;;;;;5071312;28;20024;-70
2022/05/18 10:27:29;;;;;;;7.95;4.25;;;28.10;95.40;;;;;;5064150;28;20023;-70
2022/05/18 10:30:08;;;;;;;5.32;4.53;;;28.30;95.60;;;;;;5073043;28;20074;-69
2022/05/18 10:32:36;;;;;;;8.35;3.88;;;28.40;96.20;;;;;;5070512;28;20365;-70
2022/05/18 10:35:03;;;;;;;8.57;4.20;;;28.50;95.30;;;;;;5077370;28;20389;-70
2022/05/18 10:37:38;;;;;;;6.00;4.20;;;28.60;96.20;;;;;;5076592;28;20055;-71
2022/05/18 10:40:33;;;;;;;6.30;3.35;;;28.70;95.80;;;;;;5080508;28;20032;-70
2022/05/18 10:43:35;;;;;;;5.60;4.00;;;29.00;95.60;;;;;;5064001;28;20040;-70
2022/05/18 10:46:10;;;;;;;6.82;4.35;;;29.20;94.10;;;;;;5052279;28;20060;-70
2022/05/18 10:48:36;;;;;;;5.60;4.03;;;29.10;93.90;;;;;;5071979;28;20020;-70
2022/05/18 10:51:11;;;;;;;5.38;3.88;;;29.10;93.70;;;;;;5078717;28;20029;-70
2022/05/18 10:53:45;;;;;;;5.03;3.30;;;29.30;93.40;;;;;;5074535;28;20028;-70
2022/05/18 10:56:27;;;;;;;5.53;3.95;;;29.30;93.30;;;;;;5074766;28;20036;-70
2022/05/18 10:59:35;;;;;;;5.85;3.85;;;29.30;93.90;;;;;;5069729;28;20032;-71
2022/05/18 11:02:29;;;;;;;5.43;3.78;;;29.40;93.30;;;;;;5070579;28;20020;-70
2022/05/18 11:05:15;;;;;;;5.10;3.92;;;29.70;93.20;;;;;;5073568;28;20385;-71
2022/05/18 11:07:41;;;;;;;6.65;4.10;;;29.70;93.10;;;;;;5076577;28;20029;-70
2022/05/18 11:10:07;;;;;;;15.35;4.20;;;29.60;92.50;;;;;;5076219;28;20028;-71
2022/05/18 11:13:04;;;;;;;6.10;4.20;;;29.70;93.10;;;;;;5067211;28;20069;-70
2022/05/18 11:16:05;;;;;;;4.85;3.17;;;29.60;94.40;;;;;;5073986;28;20017;-72
2022/05/18 11:18:42;;;;;;;7.53;3.65;;;29.70;93.80;;;;;;5073183;28;20036;-70
2022/05/18 11:21:33;;;;;;;6.25;3.97;;;29.80;93.90;;;;;;5058648;28;20048;-71
2022/05/18 11:24:34;;;;;;;5.93;3.53;;;30.10;92.60;;;;;;5064625;28;20028;-70
2022/05/18 11:27:25;;;;;;;3.67;3.10;;;30.20;92.60;;;;;;5074830;28;20047;-71
2022/05/18 11:30:14;;;;;;;7.88;3.38;;;30.40;92.20;;;;;;5077574;28;20041;-71
2022/05/18 11:32:55;;;;;;;7.18;3.60;;;30.50;93.30;;;;;;5078060;28;20043;-71
2022/05/18 11:36:18;;;;;;;4.93;3.20;;;30.40;92.20;;;;;;5076462;28;20028;-71
2022/05/18 11:39:02;;;;;;;9.00;3.17;;;30.70;91.90;;;;;;5034566;28;20064;-70
2022/05/18 11:41:41;;;;;;;8.02;3.60;;;31.00;92.40;;;;;;5030112;28;20053;-70
2022/05/18 11:44:11;;;;;;;8.82;3.40;;;31.00;90.60;;;;;;5053753;28;20064;-71
2022/05/18 11:46:43;;;;;;;5.05;4.10;;;31.00;92.60;;;;;;5071070;28;20032;-71
2022/05/18 11:49:19;;;;;;;6.20;3.05;;;30.90;91.40;;;;;;5073552;28;20537;-70
2022/05/18 11:52:26;;;;;;;6.15;2.90;;;31.10;91.80;;;;;;5073505;28;20036;-71
2022/05/18 11:55:14;;;;;;;5.75;3.75;;;31.20;91.50;;;;;;5073634;28;20031;-71
2022/05/18 11:58:11;;;;;;;6.88;3.28;;;31.10;90.30;;;;;;5071989;28;20037;-70
2022/05/18 12:00:56;;;;;;;5.40;3.72;;;30.80;90.80;;;;;;5072134;28;20032;-70
2022/05/18 12:03:37;;;;;;;3.20;2.83;;;30.80;91.60;;;;;;5063087;28;20423;-71
2022/05/18 12:06:12;;;;;;;4.80;3.33;;;30.70;90.40;;;;;;5068850;28;20031;-71
2022/05/18 12:08:56;;;;;;;5.55;2.90;;;30.50;90.70;;;;;;5081714;28;20028;-71
2022/05/18 12:11:41;;;;;;;5.65;2.95;;;30.40;90.90;;;;;;5073290;28;20488;-71
2022/05/18 12:14:24;;;;;;;4.95;2.60;;;30.20;91.40;;;;;;5069864;28;20032;-71
2022/05/18 12:17:11;;;;;;;5.82;3.50;;;30.10;91.50;;;;;;5072752;28;20055;-71
2022/05/18 12:19:46;;;;;;;7.25;2.75;;;30.00;91.40;;;;;;5061306;28;20028;-71
2022/05/18 12:22:16;;;;;;;5.47;3.08;;;30.10;91.70;;;;;;5074966;28;20028;-70
2022/05/18 12:24:45;;;;;;;9.23;3.20;;;30.10;92.00;;;;;;5069078;28;20028;-70
2022/05/18 12:27:14;;;;;;;3.47;2.72;;;30.00;91.60;;;;;;5072855;28;20480;-71
2022/05/18 12:29:40;;;;;;;6.13;3.20;;;30.10;92.10;;;;;;5078241;28;20388;-70
2022/05/18 12:32:08;;;;;;;3.83;2.80;;;30.10;91.50;;;;;;5073053;28;20063;-71
2022/05/18 12:34:33;;;;;;;8.48;3.05;;;30.30;91.70;;;;;;5069106;28;20040;-71
2022/05/18 12:37:14;;;;;;;5.82;3.15;;;30.30;91.10;;;;;;5078517;28;20025;-70
2022/05/18 12:40:02;;;;;;;2.80;2.25;;;30.30;91.80;;;;;;5074815;28;20033;-71
2022/05/18 12:42:29;;;;;;;5.15;2.58;;;30.10;91.90;;;;;;5075735;28;20024;-70
2022/05/18 12:45:01;;;;;;;5.65;2.67;;;29.90;92.10;;;;;;5078452;28;20066;-71
2022/05/18 12:47:38;;;;;;;3.05;2.75;;;29.90;91.70;;;;;;5075817;28;20024;-70
2022/05/18 12:50:13;;;;;;;4.88;3.00;;;29.80;91.60;;;;;;5075391;28;20071;-71
2022/05/18 12:53:01;;;;;;;6.47;3.30;;;30.00;92.40;;;;;;5073993;28;20382;-71
2022/05/18 12:55:58;;;;;;;4.78;3.30;;;30.30;91.80;;;;;;5067427;28;20029;-71
2022/05/18 12:58:26;;;;;;;3.22;2.55;;;30.20;91.40;;;;;;5076362;28;20041;-71
2022/05/18 13:01:05;;;;;;;30.58;3.88;;;30.10;92.00;;;;;;5079635;28;20034;-71
2022/05/18 13:04:01;;;;;;;5.30;2.90;;;30.00;92.60;;;;;;5081237;28;20039;-71
2022/05/18 13:06:36;;;;;;;6.07;3.22;;;29.90;92.40;;;;;;5074346;28;20032;-70
2022/05/18 13:09:25;;;;;;;5.50;2.92;;;29.90;92.40;;;;;;5076884;28;20116;-71
2022/05/18 13:11:56;;;;;;;5.63;3.20;;;29.70;92.40;;;;;;5080591;28;20526;-71
2022/05/18 13:14:51;;;;;;;4.45;3.00;;;29.70;93.00;;;;;;5070410;28;20058;-70
2022/05/18 13:17:18;;;;;;;6.80;2.53;;;29.70;93.00;;;;;;5067184;28;20035;-71
2022/05/18 13:19:54;;;;;;;4.13;3.00;;;29.70;93.10;;;;;;5068209;28;20032;-72
2022/05/18 13:22:20;;;;;;;3.75;2.78;;;29.60;92.40;;;;;;5076713;28;20017;-71
2022/05/18 13:24:48;;;;;;;4.25;3.15;;;29.80;92.80;;;;;;5070893;28;20036;-71